createdAt,value
2022-10-22T00:00:56.862Z,11.38
2022-10-22T00:03:26.040Z,11.36
2022-10-22T00:05:54.049Z,11.35
2022-10-22T00:08:21.983Z,11.34
2022-10-22T00:10:49.860Z,11.33
2022-10-22T00:13:17.911Z,11.31
2022-10-22T00:15:45.657Z,11.30
2022-10-22T00:18:13.495Z,11.29
2022-10-22T00:20:43.345Z,11.28
2022-10-22T00:23:11.113Z,11.30
2022-10-22T00:25:38.971Z,11.36
2022-10-22T00:28:06.861Z,11.35
2022-10-22T00:30:34.882Z,11.36
2022-10-22T00:33:02.587Z,11.39
2022-10-22T00:35:30.444Z,11.38
2022-10-22T00:37:59.575Z,11.38
2022-10-22T00:40:27.557Z,11.36
2022-10-22T00:42:55.938Z,11.35
2022-10-22T00:45:25.669Z,11.35
2022-10-22T00:47:58.525Z,11.32
2022-10-22T00:50:31.056Z,11.29
2022-10-22T00:53:01.326Z,11.26
2022-10-22T00:55:30.657Z,11.22
2022-10-22T00:58:00.840Z,11.20
2022-10-22T01:00:29.132Z,11.20
2022-10-22T01:02:58.311Z,11.18
2022-10-22T01:05:29.879Z,11.15
2022-10-22T01:07:58.115Z,11.13
2022-10-22T01:10:39.873Z,11.11
2022-10-22T01:13:18.581Z,11.08
2022-10-22T01:15:54.845Z,11.06
2022-10-22T01:18:30.043Z,11.04
2022-10-22T01:21:07.984Z,10.99
2022-10-22T01:24:20.483Z,10.96
2022-10-22T01:27:14.271Z,10.93
2022-10-22T01:29:48.525Z,10.91
2022-10-22T01:32:19.004Z,10.88
2022-10-22T01:34:51.528Z,10.85
2022-10-22T01:37:22.826Z,10.84
2022-10-22T01:39:51.672Z,10.82
2022-10-22T01:42:19.585Z,10.81
2022-10-22T01:44:50.154Z,10.80
2022-10-22T01:47:27.438Z,10.79
2022-10-22T01:50:12.961Z,10.80
2022-10-22T01:52:53.547Z,10.81
2022-10-22T01:55:29.901Z,10.81
2022-10-22T01:58:06.996Z,10.81
2022-10-22T02:00:40.194Z,10.81
2022-10-22T02:03:17.451Z,10.80
2022-10-22T02:05:52.060Z,10.78
2022-10-22T02:08:23.213Z,10.77
2022-10-22T02:10:51.964Z,10.78
2022-10-22T02:13:25.971Z,10.77
2022-10-22T02:15:56.957Z,10.77
2022-10-22T02:18:29.075Z,10.74
2022-10-22T02:20:57.885Z,10.72
2022-10-22T02:23:25.795Z,10.73
2022-10-22T02:25:59.920Z,10.70
2022-10-22T02:28:37.116Z,10.68
2022-10-22T02:31:14.269Z,10.65
2022-10-22T02:33:46.944Z,10.63
2022-10-22T02:36:16.565Z,10.61
2022-10-22T02:38:45.393Z,10.58
2022-10-22T02:41:13.181Z,10.55
2022-10-22T02:43:43.076Z,10.51
2022-10-22T02:46:12.775Z,10.49
2022-10-22T02:48:40.552Z,10.47
2022-10-22T02:51:08.382Z,10.45
2022-10-22T02:53:36.629Z,10.42
2022-10-22T02:56:04.645Z,10.40
2022-10-22T02:58:32.709Z,10.39
2022-10-22T03:01:00.675Z,10.35
2022-10-22T03:03:29.808Z,10.34
2022-10-22T03:05:57.645Z,10.32
2022-10-22T03:08:25.527Z,10.34
2022-10-22T03:10:53.365Z,10.33
2022-10-22T03:13:21.177Z,10.34
2022-10-22T03:15:50.293Z,10.33
2022-10-22T03:18:18.628Z,10.33
2022-10-22T03:20:47.799Z,10.31
2022-10-22T03:23:18.716Z,10.30
2022-10-22T03:25:49.302Z,10.29
2022-10-22T03:28:19.635Z,10.28
2022-10-22T03:30:47.423Z,10.27
2022-10-22T03:33:15.240Z,10.26
2022-10-22T03:35:47.262Z,10.25
2022-10-22T03:38:17.112Z,10.22
2022-10-22T03:40:46.924Z,10.19
2022-10-22T03:43:14.835Z,10.15
2022-10-22T03:45:42.631Z,10.09
2022-10-22T03:48:10.447Z,10.06
2022-10-22T03:50:38.257Z,10.02
2022-10-22T03:53:07.171Z,9.98
2022-10-22T03:55:38.080Z,9.98
2022-10-22T03:58:05.910Z,9.96
2022-10-22T04:00:33.804Z,9.95
2022-10-22T04:03:01.539Z,9.93
2022-10-22T04:05:29.328Z,9.91
2022-10-22T04:07:57.152Z,9.89
2022-10-22T04:10:24.920Z,9.86
2022-10-22T04:12:54.370Z,9.85
2022-10-22T04:15:22.277Z,9.85
2022-10-22T04:17:50.005Z,9.84
2022-10-22T04:20:18.010Z,9.84
2022-10-22T04:22:45.830Z,9.83
2022-10-22T04:25:13.559Z,9.83
2022-10-22T04:27:41.531Z,9.83
2022-10-22T04:30:12.213Z,9.83
2022-10-22T04:32:39.984Z,9.83
2022-10-22T04:35:08.688Z,9.85
2022-10-22T04:37:36.572Z,9.86
2022-10-22T04:40:05.254Z,9.87
2022-10-22T04:42:33.243Z,9.89
2022-10-22T04:45:01.050Z,9.90
2022-10-22T04:47:30.172Z,9.90
2022-10-22T04:49:58.043Z,9.92
2022-10-22T04:52:25.751Z,9.94
2022-10-22T04:54:53.535Z,9.94
2022-10-22T04:57:21.289Z,9.96
2022-10-22T04:59:49.080Z,9.98
2022-10-22T05:02:16.927Z,9.98
2022-10-22T05:04:46.353Z,10.00
2022-10-22T05:07:14.152Z,10.01
2022-10-22T05:09:42.163Z,10.00
2022-10-22T05:12:10.028Z,10.01
2022-10-22T05:14:41.395Z,10.01
2022-10-22T05:17:11.768Z,10.02
2022-10-22T05:19:39.660Z,10.02
2022-10-22T05:22:08.776Z,10.04
2022-10-22T05:24:37.148Z,10.03
2022-10-22T05:27:05.066Z,10.04
2022-10-22T05:29:32.926Z,10.04
2022-10-22T05:32:00.679Z,10.04
2022-10-22T05:34:28.490Z,10.05
2022-10-22T05:36:56.219Z,10.04
2022-10-22T05:39:25.447Z,10.04
2022-10-22T05:41:53.903Z,10.05
2022-10-22T05:44:21.775Z,10.04
2022-10-22T05:46:49.582Z,10.04
2022-10-22T05:49:17.451Z,10.05
2022-10-22T05:51:45.355Z,10.05
2022-10-22T05:54:18.876Z,10.03
2022-10-22T05:56:48.078Z,10.02
2022-10-22T05:59:15.786Z,10.02
2022-10-22T06:01:43.698Z,10.00
2022-10-22T06:04:13.410Z,9.98
2022-10-22T06:06:43.839Z,9.98
2022-10-22T06:09:16.778Z,9.98
2022-10-22T06:11:44.899Z,9.98
2022-10-22T06:14:14.463Z,10.00
2022-10-22T06:16:43.287Z,10.01
2022-10-22T06:19:12.482Z,10.02
2022-10-22T06:21:40.647Z,10.01
2022-10-22T06:24:09.225Z,10.02
2022-10-22T06:26:37.107Z,10.01
2022-10-22T06:29:05.156Z,10.01
2022-10-22T06:31:36.835Z,10.00
2022-10-22T06:34:04.830Z,10.00
2022-10-22T06:36:32.777Z,10.02
2022-10-22T06:39:00.631Z,10.04
2022-10-22T06:41:28.919Z,10.04
2022-10-22T06:43:58.339Z,10.07
2022-10-22T06:46:27.002Z,10.09
2022-10-22T06:48:57.610Z,10.10
2022-10-22T06:51:26.173Z,10.11
2022-10-22T06:53:54.510Z,10.12
2022-10-22T06:56:24.314Z,10.15
2022-10-22T06:58:53.309Z,10.16
2022-10-22T07:01:22.848Z,10.18
2022-10-22T07:03:52.197Z,10.20
2022-10-22T07:06:22.454Z,10.22
2022-10-22T07:08:50.459Z,10.24
2022-10-22T07:11:20.419Z,10.26
2022-10-22T07:13:48.931Z,10.27
2022-10-22T07:16:17.785Z,10.28
2022-10-22T07:18:46.291Z,10.28
2022-10-22T07:21:16.577Z,10.29
2022-10-22T07:23:45.988Z,10.31
2022-10-22T07:26:16.682Z,10.35
2022-10-22T07:28:44.794Z,10.42
2022-10-22T07:31:14.342Z,10.47
2022-10-22T07:33:42.274Z,10.52
2022-10-22T07:36:17.362Z,10.59
2022-10-22T07:38:47.806Z,10.66
2022-10-22T07:41:16.736Z,10.77
2022-10-22T07:43:44.902Z,10.91
2022-10-22T07:46:12.715Z,11.05
2022-10-22T07:48:40.877Z,11.16
2022-10-22T07:51:08.977Z,11.31
2022-10-22T07:53:36.893Z,11.49
2022-10-22T07:56:06.706Z,11.64
2022-10-22T07:58:35.276Z,11.77
2022-10-22T08:01:05.647Z,11.84
2022-10-22T08:03:33.994Z,11.88
2022-10-22T08:06:02.251Z,11.99
2022-10-22T08:08:31.020Z,12.05
2022-10-22T08:11:02.094Z,12.15
2022-10-22T08:13:31.991Z,12.32
2022-10-22T08:16:01.258Z,12.48
2022-10-22T08:18:30.083Z,12.62
2022-10-22T08:20:58.445Z,12.75
2022-10-22T08:23:28.745Z,12.89
2022-10-22T08:25:57.618Z,12.97
2022-10-22T08:28:25.754Z,13.04
2022-10-22T08:30:54.913Z,13.08
2022-10-22T08:33:23.038Z,13.12
2022-10-22T08:35:51.895Z,13.18
2022-10-22T08:38:20.260Z,13.24
2022-10-22T08:40:54.230Z,13.31
2022-10-22T08:43:42.693Z,13.38
2022-10-22T08:46:32.228Z,13.45
2022-10-22T08:49:03.052Z,13.52
2022-10-22T08:51:36.322Z,13.59
2022-10-22T08:54:18.063Z,13.65
2022-10-22T08:56:48.988Z,13.70
2022-10-22T08:59:22.266Z,13.76
2022-10-22T09:01:54.604Z,13.81
2022-10-22T09:04:29.576Z,13.88
2022-10-22T09:06:59.873Z,13.93
2022-10-22T09:09:34.061Z,14.03
2022-10-22T09:12:03.578Z,14.09
2022-10-22T09:14:31.669Z,14.19
2022-10-22T09:17:17.359Z,14.28
2022-10-22T09:19:59.378Z,14.38
2022-10-22T09:22:38.477Z,14.47
2022-10-22T09:25:23.924Z,14.54
2022-10-22T09:27:58.701Z,14.59
2022-10-22T09:30:30.416Z,14.68
2022-10-22T09:33:04.082Z,14.82
2022-10-22T09:35:35.914Z,14.97
2022-10-22T09:38:09.715Z,15.05
2022-10-22T09:40:44.881Z,15.09
2022-10-22T09:43:15.247Z,15.14
2022-10-22T09:45:44.494Z,15.19
2022-10-22T09:48:21.502Z,15.27
2022-10-22T09:50:50.996Z,15.29
2022-10-22T09:53:21.022Z,15.29
2022-10-22T09:58:27.907Z,15.30
2022-10-22T10:00:58.075Z,15.28
2022-10-22T10:03:29.691Z,15.22
2022-10-22T10:06:03.051Z,15.20
2022-10-22T10:08:34.330Z,15.18
2022-10-22T10:11:07.151Z,15.20
2022-10-22T10:13:51.824Z,15.24
2022-10-22T10:16:42.568Z,15.26
2022-10-22T10:19:57.799Z,15.27
2022-10-22T10:22:49.551Z,15.28
2022-10-22T10:25:32.721Z,15.29
2022-10-22T10:28:18.256Z,15.31
2022-10-22T10:30:54.524Z,15.34
2022-10-22T10:33:46.531Z,15.33
2022-10-22T10:36:25.989Z,15.33
2022-10-22T10:39:01.105Z,15.30
2022-10-22T10:41:46.778Z,15.31
2022-10-22T10:44:31.641Z,15.32
2022-10-22T10:47:09.793Z,15.32
2022-10-22T10:49:38.282Z,15.34
2022-10-22T10:52:21.286Z,15.32
2022-10-22T10:55:04.485Z,15.36
2022-10-22T10:57:44.718Z,15.38
2022-10-22T11:00:17.077Z,15.44
2022-10-22T11:03:12.946Z,15.48
2022-10-22T11:05:45.101Z,15.55
2022-10-22T11:08:20.633Z,15.58
2022-10-22T11:10:52.874Z,15.62
2022-10-22T11:13:27.111Z,15.67
2022-10-22T11:16:01.935Z,15.78
2022-10-22T11:18:35.424Z,15.83
2022-10-22T11:21:12.417Z,15.89
2022-10-22T11:23:47.146Z,15.97
2022-10-22T11:26:30.367Z,16.12
2022-10-22T11:29:02.491Z,16.26
2022-10-22T11:31:33.173Z,16.39
2022-10-22T11:34:32.048Z,16.55
2022-10-22T11:36:58.418Z,16.69
2022-10-22T11:39:42.280Z,16.78
2022-10-22T11:42:13.909Z,16.88
2022-10-22T11:47:34.248Z,17.08
2022-10-22T11:50:19.763Z,17.20
2022-10-22T11:52:55.277Z,17.29
2022-10-22T11:55:47.883Z,17.42
2022-10-22T11:58:32.105Z,17.50
2022-10-22T12:01:19.726Z,17.57
2022-10-22T12:03:51.334Z,17.63
2022-10-22T12:06:23.052Z,17.66
2022-10-22T12:09:00.414Z,17.71
2022-10-22T12:11:38.325Z,17.74
2022-10-22T12:14:26.740Z,17.79
2022-10-22T12:16:58.788Z,17.83
2022-10-22T12:19:30.821Z,17.88
2022-10-22T12:22:01.210Z,17.93
2022-10-22T12:24:34.119Z,17.96
2022-10-22T12:27:03.383Z,17.99
2022-10-22T12:29:33.967Z,17.99
2022-10-22T12:32:05.113Z,17.99
2022-10-22T12:34:32.891Z,18.07
2022-10-22T12:37:00.739Z,18.09
2022-10-22T12:39:29.957Z,18.13
2022-10-22T12:41:57.755Z,18.15
2022-10-22T12:44:26.866Z,18.14
2022-10-22T12:46:57.064Z,18.13
2022-10-22T12:49:35.230Z,18.15
2022-10-22T12:52:07.733Z,18.16
2022-10-22T12:54:39.133Z,18.24
2022-10-22T12:57:07.156Z,18.22
2022-10-22T12:59:38.845Z,18.17
2022-10-22T13:02:18.527Z,18.10
2022-10-22T13:05:16.158Z,18.05
2022-10-22T13:07:47.823Z,17.99
2022-10-22T13:10:21.288Z,17.93
2022-10-22T13:12:55.459Z,17.85
2022-10-22T13:15:35.704Z,17.77
2022-10-22T13:18:05.872Z,17.69
2022-10-22T13:20:37.250Z,17.62
2022-10-22T13:23:06.384Z,17.58
2022-10-22T13:25:37.238Z,17.54
2022-10-22T13:28:21.907Z,17.52
2022-10-22T13:30:56.024Z,17.47
2022-10-22T13:33:27.263Z,17.47
2022-10-22T13:35:56.200Z,17.47
2022-10-22T13:38:26.454Z,17.56
2022-10-22T13:40:54.577Z,17.61
2022-10-22T13:43:23.278Z,17.69
2022-10-22T13:45:56.562Z,17.75
2022-10-22T13:48:26.466Z,17.73
2022-10-22T13:50:54.795Z,17.67
2022-10-22T13:53:25.296Z,17.57
2022-10-22T13:55:53.408Z,17.48
2022-10-22T13:58:24.465Z,17.36
2022-10-22T14:00:57.079Z,17.28
2022-10-22T14:03:29.321Z,17.10
2022-10-22T14:05:57.860Z,17.00
2022-10-22T14:08:26.714Z,16.94
2022-10-22T14:10:54.748Z,16.86
2022-10-22T14:13:22.899Z,16.77
2022-10-22T14:15:52.931Z,16.77
2022-10-22T14:18:27.380Z,16.78
2022-10-22T14:20:57.201Z,16.81
2022-10-22T14:23:27.977Z,16.85
2022-10-22T14:25:56.223Z,16.83
2022-10-22T14:28:24.141Z,16.83
2022-10-22T14:30:53.024Z,16.83
2022-10-22T14:33:28.787Z,16.87
2022-10-22T14:35:58.321Z,16.88
2022-10-22T14:38:26.221Z,16.88
2022-10-22T14:40:53.961Z,16.88
2022-10-22T14:43:24.985Z,16.87
2022-10-22T14:45:53.124Z,16.79
2022-10-22T14:48:22.464Z,16.75
2022-10-22T14:50:50.608Z,16.76
2022-10-22T14:53:18.495Z,16.72
2022-10-22T14:55:47.372Z,16.62
2022-10-22T14:58:15.726Z,16.55
2022-10-22T15:00:44.797Z,16.52
2022-10-22T15:03:12.802Z,16.47
2022-10-22T15:05:44.413Z,16.43
2022-10-22T15:08:13.890Z,16.40
2022-10-22T15:10:41.855Z,16.38
2022-10-22T15:13:09.758Z,16.38
2022-10-22T15:15:39.901Z,16.36
2022-10-22T15:18:08.288Z,16.32
2022-10-22T15:20:36.144Z,16.23
2022-10-22T15:23:05.374Z,16.14
2022-10-22T15:25:33.136Z,16.07
2022-10-22T15:28:09.192Z,15.98
2022-10-22T15:30:37.861Z,15.91
2022-10-22T15:33:06.526Z,15.90
2022-10-22T15:35:34.515Z,15.84
2022-10-22T15:38:02.224Z,15.74
2022-10-22T15:40:31.346Z,15.65
2022-10-22T15:42:59.163Z,15.58
2022-10-22T15:45:26.953Z,15.51
2022-10-22T15:47:54.766Z,15.42
2022-10-22T15:50:22.773Z,15.36
2022-10-22T15:52:50.790Z,15.29
2022-10-22T15:55:18.854Z,15.23
2022-10-22T15:57:54.783Z,15.15
2022-10-22T16:00:24.933Z,15.04
2022-10-22T16:02:54.912Z,14.93
2022-10-22T16:05:22.776Z,14.85
2022-10-22T16:07:51.414Z,14.77
2022-10-22T16:10:19.368Z,14.73
2022-10-22T16:12:51.411Z,14.68
2022-10-22T16:15:19.549Z,14.68
2022-10-22T16:17:47.315Z,14.66
2022-10-22T16:20:15.104Z,14.66
2022-10-22T16:22:43.336Z,14.67
2022-10-22T16:25:11.298Z,14.68
2022-10-22T16:27:39.254Z,14.68
2022-10-22T16:30:09.180Z,14.68
2022-10-22T16:32:36.998Z,14.67
2022-10-22T16:35:05.081Z,14.67
2022-10-22T16:37:32.847Z,14.64
2022-10-22T16:40:04.387Z,14.61
2022-10-22T16:42:36.132Z,14.59
2022-10-22T16:45:04.338Z,14.56
2022-10-22T16:47:33.523Z,14.54
2022-10-22T16:50:01.311Z,14.50
2022-10-22T16:52:29.400Z,14.46
2022-10-22T16:54:58.086Z,14.41
2022-10-22T16:57:25.949Z,14.35
2022-10-22T16:59:53.919Z,14.28
2022-10-22T17:02:21.888Z,14.23
2022-10-22T17:04:51.146Z,14.18
2022-10-22T17:07:18.920Z,14.15
2022-10-22T17:09:46.703Z,14.09
2022-10-22T17:12:14.689Z,14.06
2022-10-22T17:14:42.541Z,13.99
2022-10-22T17:17:10.293Z,13.95
2022-10-22T17:19:38.809Z,13.91
2022-10-22T17:22:08.024Z,13.86
2022-10-22T17:24:36.148Z,13.82
2022-10-22T17:29:37.110Z,13.77
2022-10-22T17:32:05.005Z,13.75
2022-10-22T17:34:33.515Z,13.73
2022-10-22T17:37:01.343Z,13.74
2022-10-22T17:39:30.510Z,13.71
2022-10-22T17:41:58.426Z,13.71
2022-10-22T17:44:26.185Z,13.71
2022-10-22T17:46:53.978Z,13.72
2022-10-22T17:49:21.943Z,13.71
2022-10-22T17:51:49.857Z,13.72
2022-10-22T17:54:17.733Z,13.72
2022-10-22T17:56:46.976Z,13.69
2022-10-22T17:59:17.047Z,13.66
2022-10-22T18:01:47.846Z,13.59
2022-10-22T18:04:17.905Z,13.52
2022-10-22T18:06:46.705Z,13.43
2022-10-22T18:09:18.420Z,13.34
2022-10-22T18:11:49.055Z,13.26
2022-10-22T18:14:18.710Z,13.18
2022-10-22T18:16:47.411Z,13.09
2022-10-22T18:19:16.879Z,13.01
2022-10-22T18:21:44.923Z,12.91
2022-10-22T18:24:15.064Z,12.85
2022-10-22T18:26:43.263Z,12.79
2022-10-22T18:29:15.459Z,12.71
2022-10-22T18:31:43.795Z,12.64
2022-10-22T18:34:11.941Z,12.58
2022-10-22T18:36:41.424Z,12.56
2022-10-22T18:39:09.383Z,12.49
2022-10-22T18:41:37.683Z,12.44
2022-10-22T18:44:07.904Z,12.38
2022-10-22T18:46:38.380Z,12.33
2022-10-22T18:49:08.026Z,12.26
2022-10-22T18:51:36.533Z,12.21
2022-10-22T18:54:18.276Z,12.13
2022-10-22T18:56:50.408Z,12.09
2022-10-22T18:59:19.614Z,12.03
2022-10-22T19:01:49.591Z,11.97
2022-10-22T19:04:17.432Z,11.92
2022-10-22T19:06:46.036Z,11.90
2022-10-22T19:09:14.808Z,11.87
2022-10-22T19:11:43.869Z,11.85
2022-10-22T19:14:11.853Z,11.80
2022-10-22T19:16:39.649Z,11.77
2022-10-22T19:19:09.229Z,11.73
2022-10-22T19:21:38.321Z,11.68
2022-10-22T19:24:06.955Z,11.66
2022-10-22T19:26:35.318Z,11.61
2022-10-22T19:29:04.869Z,11.58
2022-10-22T19:31:32.903Z,11.57
2022-10-22T19:34:02.197Z,11.55
2022-10-22T19:36:34.334Z,11.56
2022-10-22T19:39:03.525Z,11.56
2022-10-22T19:41:32.524Z,11.55
2022-10-22T19:44:01.557Z,11.53
2022-10-22T19:46:32.406Z,11.50
2022-10-22T19:49:00.535Z,11.46
2022-10-22T19:51:30.805Z,11.43
2022-10-22T19:54:01.088Z,11.43
2022-10-22T19:56:29.684Z,11.45
2022-10-22T19:58:57.731Z,11.46
2022-10-22T20:01:26.115Z,11.44
2022-10-22T20:03:54.654Z,11.43
2022-10-22T20:06:22.876Z,11.41
2022-10-22T20:08:53.897Z,11.32
2022-10-22T20:11:27.384Z,11.26
2022-10-22T20:13:56.524Z,11.22
2022-10-22T20:16:28.662Z,11.18
2022-10-22T20:19:00.785Z,11.12
2022-10-22T20:21:28.984Z,11.06
2022-10-22T20:23:57.474Z,10.99
2022-10-22T20:26:28.844Z,10.93
2022-10-22T20:28:57.431Z,10.90
2022-10-22T20:31:27.069Z,10.87
2022-10-22T20:33:57.377Z,10.83
2022-10-22T20:36:27.178Z,10.80
2022-10-22T20:39:00.792Z,10.78
2022-10-22T20:41:30.880Z,10.76
2022-10-22T20:43:58.814Z,10.75
2022-10-22T20:46:29.590Z,10.72
2022-10-22T20:49:02.211Z,10.70
2022-10-22T20:51:29.858Z,10.68
2022-10-22T20:53:57.743Z,10.64
2022-10-22T20:56:25.951Z,10.63
2022-10-22T20:59:04.231Z,10.58
2022-10-22T21:01:34.047Z,10.55
2022-10-22T21:04:01.787Z,10.51
2022-10-22T21:06:30.272Z,10.48
2022-10-22T21:08:58.154Z,10.45
2022-10-22T21:11:26.095Z,10.44
2022-10-22T21:13:55.245Z,10.41
2022-10-22T21:16:23.037Z,10.40
2022-10-22T21:18:50.826Z,10.37
2022-10-22T21:21:19.941Z,10.34
2022-10-22T21:23:50.104Z,10.29
2022-10-22T21:26:18.196Z,10.26
2022-10-22T21:28:46.149Z,10.21
2022-10-22T21:31:21.597Z,10.16
2022-10-22T21:33:50.444Z,10.12
2022-10-22T21:36:22.751Z,10.10
2022-10-22T21:38:52.077Z,10.12
2022-10-22T21:41:21.933Z,10.14
2022-10-22T21:43:49.889Z,10.18
2022-10-22T21:46:21.198Z,10.26
2022-10-22T21:48:53.845Z,10.30
2022-10-22T21:51:22.127Z,10.34
2022-10-22T21:56:24.996Z,10.45
2022-10-22T21:58:53.231Z,10.47
2022-10-22T22:01:23.258Z,10.50
2022-10-22T22:06:35.928Z,10.56
2022-10-22T22:09:05.521Z,10.56
2022-10-22T22:11:33.632Z,10.58
2022-10-22T22:14:01.464Z,10.58
2022-10-22T22:16:31.707Z,10.60
2022-10-22T22:19:01.713Z,10.60
2022-10-22T22:21:30.156Z,10.62
2022-10-22T22:23:59.871Z,10.62
2022-10-22T22:26:30.220Z,10.62
2022-10-22T22:28:59.592Z,10.63
2022-10-22T22:31:29.392Z,10.64
2022-10-22T22:34:01.155Z,10.64
2022-10-22T22:36:33.020Z,10.63
2022-10-22T22:39:02.203Z,10.62
2022-10-22T22:41:29.980Z,10.61
2022-10-22T22:43:57.890Z,10.59
2022-10-22T22:46:25.758Z,10.58
2022-10-22T22:48:53.783Z,10.56
2022-10-22T22:51:22.008Z,10.52
2022-10-22T22:53:49.948Z,10.49
2022-10-22T22:56:21.645Z,10.47
2022-10-22T22:58:50.385Z,10.46
2022-10-22T23:01:19.973Z,10.47
2022-10-22T23:03:50.091Z,10.45
2022-10-22T23:06:17.945Z,10.45
2022-10-22T23:08:45.984Z,10.45
2022-10-22T23:11:15.330Z,10.47
2022-10-22T23:13:45.102Z,10.47
2022-10-22T23:16:16.475Z,10.49
2022-10-22T23:18:45.160Z,10.49
2022-10-22T23:21:15.667Z,10.50
2022-10-22T23:23:45.620Z,10.50
2022-10-22T23:26:14.972Z,10.50
2022-10-22T23:28:44.141Z,10.50
2022-10-22T23:31:13.362Z,10.51
2022-10-22T23:33:41.386Z,10.51
2022-10-22T23:36:09.601Z,10.52
2022-10-22T23:38:39.108Z,10.52
2022-10-22T23:41:07.726Z,10.51
2022-10-22T23:43:37.633Z,10.50
2022-10-22T23:46:08.858Z,10.48
2022-10-22T23:48:37.160Z,10.46
2022-10-22T23:51:05.832Z,10.44
2022-10-22T23:53:33.699Z,10.42
2022-10-22T23:56:05.683Z,10.39
2022-10-22T23:58:34.469Z,10.37
